Nancy M — WDF3398 — position and weather

sailwx.info

Track history (hours):
 
Tides and Currents Weather Stations Pressure Air Temp Water Temp Dewpoint Dewpoint Depression Visibility Wind Speed Wind Dir Waves Ship Positions

Nancy M

Owner: MANSON CONSTRUCTION CO., SEATTLE, WA. More information available from US FCC via Universal Licensing System and Coast Guard Vessel Documentation Center.

Last reported at 2017-Jun-19 20:43 UTC. Time now 2017-Jun-26 22:35 UTC.
Position N 47°33' W 122°21'.

Length 24 m; draft 4 m.

Type: Tug. MMSI: 367439390.

Date/timePositionNaut miles runAvg speedWind from/ knotsBaromVisibWave heightAir tempDewpointWater temp
2017-Jun-19 20:43N 47°33' W 122°21'0 0.9
2017-Jun-19 20:30N 47°34' W 122°21'2 4.6
2017-Jun-19 20:00N 47°36' W 122°22'4 8.5
2017-Jun-19 19:30N 47°39' W 122°26'2 3.8
2017-Jun-19 19:00N 47°40' W 122°24'0 0.7
2017-Jun-19 18:30N 47°40' W 122°23'1 2.8
2017-Jun-19 18:00N 47°39' W 122°22'1 1.6
2017-Jun-19 17:30N 47°39' W 122°20'3 5.1
2017-Jun-19 17:00N 47°40' W 122°24'0 0.5
2017-Jun-19 16:30N 47°40' W 122°24'3 5.7
2017-Jun-19 16:00N 47°37' W 122°24'5 9.1
2017-Jun-19 15:30N 47°33' W 122°21'0 0.0
2017-Jun-19 15:00N 47°33' W 122°21'0 0.1
2017-Jun-19 14:31N 47°33' W 122°21'5 4.7
2017-Jun-19 13:30N 47°37' W 122°24'3 5.2
2017-Jun-19 13:00N 47°40' W 122°24'1 2.0
2017-Jun-19 12:31N 47°40' W 122°23'2 3.2
2017-Jun-19 12:00N 47°39' W 122°20'0 0.0
2017-Jun-19 11:30N 47°39' W 122°20'1 1.1
2017-Jun-19 11:00N 47°39' W 122°21'2 3.8
2017-Jun-19 10:30N 47°40' W 122°24'1 1.2
2017-Jun-19 10:00N 47°40' W 122°24'1 2.1
2017-Jun-19 09:30N 47°41' W 122°25'2 3.4
2017-Jun-19 09:00N 47°43' W 122°25'3 6.8
2017-Jun-19 08:30N 47°46' W 122°27'4 8.9
2017-Jun-19 08:00N 47°50' W 122°29'4 8.9
2017-Jun-19 07:30N 47°54' W 122°31'5 9.0
2017-Jun-19 06:55N 47°58' W 122°36'24 8.8
2017-Jun-19 04:10N 48°22' W 122°46'3 8.4
2017-Jun-19 03:48N 48°25' W 122°45'3 8.6
2017-Jun-19 03:30N 48°27' W 122°45'4 8.3
2017-Jun-19 03:00N 48°31' W 122°45'4 8.8
2017-Jun-19 02:30N 48°36' W 122°45'5 9.0
2017-Jun-19 01:59N 48°40' W 122°44'5 8.8
2017-Jun-19 01:28N 48°44' W 122°47'14 7.2
2017-Jun-18 23:34N 48°52' W 123°04'0 7.4
2017-Jun-18 23:30N 48°52' W 123°05'4 7.3
2017-Jun-18 22:58N 48°54' W 123°10'8 7.3
2017-Jun-18 21:52N 48°60' W 123°19'3 7.2
2017-Jun-18 21:26N 49°02' W 123°23'3 6.9
2017-Jun-18 21:00N 49°04' W 123°26'31 1.7
2017-Jun-18 02:58N 49°16' W 124°09'0 0.0
2017-Jun-18 02:30N 49°16' W 124°09'0 0.0
2017-Jun-16 10:19N 49°16' W 124°09'0 0.0
2017-Jun-16 10:00N 49°16' W 124°09'  
2017-Jun-13 12:09N 49°16' W 124°08'0 0.4
2017-Jun-13 10:53N 49°16' W 124°09'0 0.1
2017-Jun-13 10:04N 49°16' W 124°09'8 0.5
2017-Jun-12 18:37N 49°19' W 123°57'0 2.1
2017-Jun-12 18:24N 49°19' W 123°58'8 0.4
2017-Jun-11 22:19N 49°16' W 124°09'23 1.4
2017-Jun-11 05:50N 49°10' W 123°35'4 8.1
2017-Jun-11 05:20N 49°08' W 123°29'4 8.3
2017-Jun-11 04:48N 49°05' W 123°24'8 8.1
2017-Jun-11 03:50N 49°01' W 123°14'6 8.1
2017-Jun-11 03:09N 48°57' W 123°08'1 8.0
2017-Jun-11 02:59N 48°56' W 123°06'18 5.7
2017-Jun-10 23:51N 48°45' W 122°45'2 6.3
2017-Jun-10 23:30N 48°43' W 122°44'3 6.3
2017-Jun-10 23:00N 48°40' W 122°43'4 7.3
2017-Jun-10 22:30N 48°36' W 122°44'4 7.0
2017-Jun-10 22:00N 48°33' W 122°44'3 6.1
2017-Jun-10 21:30N 48°30' W 122°44'4 6.2
2017-Jun-10 20:52N 48°26' W 122°44'9 5.3
2017-Jun-10 19:11N 48°17' W 122°47'1 5.2
2017-Jun-10 19:00N 48°16' W 122°47'3 5.9
2017-Jun-10 18:29N 48°13' W 122°48'16 9.6
2017-Jun-10 16:49N 47°60' W 122°35'3 9.7
2017-Jun-10 16:30N 47°57' W 122°32'4 8.4
2017-Jun-10 16:00N 47°54' W 122°28'4 7.7
2017-Jun-10 15:30N 47°50' W 122°27'4 7.6
2017-Jun-10 15:00N 47°47' W 122°26'6 6.0
2017-Jun-10 14:00N 47°41' W 122°25'1 1.8
2017-Jun-10 13:30N 47°40' W 122°24'0 0.9
2017-Jun-10 13:00N 47°40' W 122°23'2 3.7
2017-Jun-10 12:30N 47°39' W 122°21'0 0.5
2017-Jun-10 12:00N 47°39' W 122°20'0 0.0
2017-Jun-10 11:30N 47°39' W 122°20'0 0.0
2017-Jun-10 11:00N 47°39' W 122°20'0 0.0
2017-Jun-10 10:30N 47°39' W 122°20'0 0.0
2017-Jun-10 10:00N 47°39' W 122°20'0 0.0
2017-Jun-10 09:30N 47°39' W 122°20'0 0.0
2017-Jun-10 09:00N 47°39' W 122°20'0 0.0
2017-Jun-10 08:30N 47°39' W 122°20'0 0.0
2017-Jun-10 08:00N 47°39' W 122°20'0 0.0
2017-Jun-10 07:30N 47°39' W 122°20'0 0.0
2017-Jun-10 07:00N 47°39' W 122°20'0 0.0
2017-Jun-10 06:30N 47°39' W 122°20'0 0.0
2017-Jun-10 06:00N 47°39' W 122°20'0 0.0
2017-Jun-10 05:30N 47°39' W 122°20'0 0.0
2017-Jun-10 05:00N 47°39' W 122°20'0 0.0
2017-Jun-10 04:30N 47°39' W 122°20'0 0.0
2017-Jun-10 04:00N 47°39' W 122°20'0 0.0
2017-Jun-10 03:30N 47°39' W 122°20'0 0.0
2017-Jun-10 03:00N 47°39' W 122°20'2 5.0
2017-Jun-10 02:30N 47°40' W 122°24'2 3.8
2017-Jun-10 02:01N 47°40' W 122°27'5 9.8
2017-Jun-10 01:30N 47°36' W 122°22'3 5.2
2017-Jun-10 01:00N 47°33' W 122°20'2 4.6
2017-Jun-10 00:30N 47°35' W 122°22'3 6.7
2017-Jun-10 00:00N 47°38' W 122°25'3 5.2
2017-Jun-09 23:30N 47°41' W 122°25'1 2.2
2017-Jun-09 23:00N 47°40' W 122°24'0 0.5
2017-Jun-09 22:30N 47°40' W 122°23'1 1.1
2017-Jun-09 22:00N 47°40' W 122°23'1 1.2
2017-Jun-09 21:30N 47°39' W 122°22'0 0.0
2017-Jun-09 21:00N 47°39' W 122°22'  
Track history (hours):
 
Tides and Currents Weather Stations Pressure Air Temp Water Temp Dewpoint Dewpoint Depression Visibility Wind Speed Wind Dir Waves Ship Positions

Nancy M

Owner: MANSON CONSTRUCTION CO., SEATTLE, WA. More information available from US FCC via Universal Licensing System and Coast Guard Vessel Documentation Center.

Last reported at 2017-Jun-19 20:43 UTC. Time now 2017-Jun-26 22:35 UTC.
Position N 47°33' W 122°21'.

Length 24 m; draft 4 m.

Type: Tug. MMSI: 367439390.

Date/timePositionNaut miles runAvg speedWind from/ knotsBaromVisibWave heightAir tempDewpointWater temp
2017-Jun-19 20:43N 47°33' W 122°21'0 0.9
2017-Jun-19 20:30N 47°34' W 122°21'2 4.6
2017-Jun-19 20:00N 47°36' W 122°22'4 8.5
2017-Jun-19 19:30N 47°39' W 122°26'2 3.8
2017-Jun-19 19:00N 47°40' W 122°24'0 0.7
2017-Jun-19 18:30N 47°40' W 122°23'1 2.8
2017-Jun-19 18:00N 47°39' W 122°22'1 1.6
2017-Jun-19 17:30N 47°39' W 122°20'3 5.1
2017-Jun-19 17:00N 47°40' W 122°24'0 0.5
2017-Jun-19 16:30N 47°40' W 122°24'3 5.7
2017-Jun-19 16:00N 47°37' W 122°24'5 9.1
2017-Jun-19 15:30N 47°33' W 122°21'0 0.0
2017-Jun-19 15:00N 47°33' W 122°21'0 0.1
2017-Jun-19 14:31N 47°33' W 122°21'5 4.7
2017-Jun-19 13:30N 47°37' W 122°24'3 5.2
2017-Jun-19 13:00N 47°40' W 122°24'1 2.0
2017-Jun-19 12:31N 47°40' W 122°23'2 3.2
2017-Jun-19 12:00N 47°39' W 122°20'0 0.0
2017-Jun-19 11:30N 47°39' W 122°20'1 1.1
2017-Jun-19 11:00N 47°39' W 122°21'2 3.8
2017-Jun-19 10:30N 47°40' W 122°24'1 1.2
2017-Jun-19 10:00N 47°40' W 122°24'1 2.1
2017-Jun-19 09:30N 47°41' W 122°25'2 3.4
2017-Jun-19 09:00N 47°43' W 122°25'3 6.8
2017-Jun-19 08:30N 47°46' W 122°27'4 8.9
2017-Jun-19 08:00N 47°50' W 122°29'4 8.9
2017-Jun-19 07:30N 47°54' W 122°31'5 9.0
2017-Jun-19 06:55N 47°58' W 122°36'24 8.8
2017-Jun-19 04:10N 48°22' W 122°46'3 8.4
2017-Jun-19 03:48N 48°25' W 122°45'3 8.6
2017-Jun-19 03:30N 48°27' W 122°45'4 8.3
2017-Jun-19 03:00N 48°31' W 122°45'4 8.8
2017-Jun-19 02:30N 48°36' W 122°45'5 9.0
2017-Jun-19 01:59N 48°40' W 122°44'5 8.8
2017-Jun-19 01:28N 48°44' W 122°47'14 7.2
2017-Jun-18 23:34N 48°52' W 123°04'0 7.4
2017-Jun-18 23:30N 48°52' W 123°05'4 7.3
2017-Jun-18 22:58N 48°54' W 123°10'8 7.3
2017-Jun-18 21:52N 48°60' W 123°19'3 7.2
2017-Jun-18 21:26N 49°02' W 123°23'3 6.9
2017-Jun-18 21:00N 49°04' W 123°26'31 1.7
2017-Jun-18 02:58N 49°16' W 124°09'0 0.0
2017-Jun-18 02:30N 49°16' W 124°09'0 0.0
2017-Jun-16 10:19N 49°16' W 124°09'0 0.0
2017-Jun-16 10:00N 49°16' W 124°09'  
2017-Jun-13 12:09N 49°16' W 124°08'0 0.4
2017-Jun-13 10:53N 49°16' W 124°09'0 0.1
2017-Jun-13 10:04N 49°16' W 124°09'8 0.5
2017-Jun-12 18:37N 49°19' W 123°57'0 2.1
2017-Jun-12 18:24N 49°19' W 123°58'8 0.4
2017-Jun-11 22:19N 49°16' W 124°09'23 1.4
2017-Jun-11 05:50N 49°10' W 123°35'4 8.1
2017-Jun-11 05:20N 49°08' W 123°29'4 8.3
2017-Jun-11 04:48N 49°05' W 123°24'8 8.1
2017-Jun-11 03:50N 49°01' W 123°14'6 8.1
2017-Jun-11 03:09N 48°57' W 123°08'1 8.0
2017-Jun-11 02:59N 48°56' W 123°06'18 5.7
2017-Jun-10 23:51N 48°45' W 122°45'2 6.3
2017-Jun-10 23:30N 48°43' W 122°44'3 6.3
2017-Jun-10 23:00N 48°40' W 122°43'4 7.3
2017-Jun-10 22:30N 48°36' W 122°44'4 7.0
2017-Jun-10 22:00N 48°33' W 122°44'3 6.1
2017-Jun-10 21:30N 48°30' W 122°44'4 6.2
2017-Jun-10 20:52N 48°26' W 122°44'9 5.3
2017-Jun-10 19:11N 48°17' W 122°47'1 5.2
2017-Jun-10 19:00N 48°16' W 122°47'3 5.9
2017-Jun-10 18:29N 48°13' W 122°48'16 9.6
2017-Jun-10 16:49N 47°60' W 122°35'3 9.7
2017-Jun-10 16:30N 47°57' W 122°32'4 8.4
2017-Jun-10 16:00N 47°54' W 122°28'4 7.7
2017-Jun-10 15:30N 47°50' W 122°27'4 7.6
2017-Jun-10 15:00N 47°47' W 122°26'6 6.0
2017-Jun-10 14:00N 47°41' W 122°25'1 1.8
2017-Jun-10 13:30N 47°40' W 122°24'0 0.9
2017-Jun-10 13:00N 47°40' W 122°23'2 3.7
2017-Jun-10 12:30N 47°39' W 122°21'0 0.5
2017-Jun-10 12:00N 47°39' W 122°20'0 0.0
2017-Jun-10 11:30N 47°39' W 122°20'0 0.0
2017-Jun-10 11:00N 47°39' W 122°20'0 0.0
2017-Jun-10 10:30N 47°39' W 122°20'0 0.0
2017-Jun-10 10:00N 47°39' W 122°20'0 0.0
2017-Jun-10 09:30N 47°39' W 122°20'0 0.0
2017-Jun-10 09:00N 47°39' W 122°20'0 0.0
2017-Jun-10 08:30N 47°39' W 122°20'0 0.0
2017-Jun-10 08:00N 47°39' W 122°20'0 0.0
2017-Jun-10 07:30N 47°39' W 122°20'0 0.0
2017-Jun-10 07:00N 47°39' W 122°20'0 0.0
2017-Jun-10 06:30N 47°39' W 122°20'0 0.0
2017-Jun-10 06:00N 47°39' W 122°20'0 0.0
2017-Jun-10 05:30N 47°39' W 122°20'0 0.0
2017-Jun-10 05:00N 47°39' W 122°20'0 0.0
2017-Jun-10 04:30N 47°39' W 122°20'0 0.0
2017-Jun-10 04:00N 47°39' W 122°20'0 0.0
2017-Jun-10 03:30N 47°39' W 122°20'0 0.0
2017-Jun-10 03:00N 47°39' W 122°20'2 5.0
2017-Jun-10 02:30N 47°40' W 122°24'2 3.8
2017-Jun-10 02:01N 47°40' W 122°27'5 9.8
2017-Jun-10 01:30N 47°36' W 122°22'3 5.2
2017-Jun-10 01:00N 47°33' W 122°20'2 4.6
2017-Jun-10 00:30N 47°35' W 122°22'3 6.7
2017-Jun-10 00:00N 47°38' W 122°25'3 5.2
2017-Jun-09 23:30N 47°41' W 122°25'1 2.2
2017-Jun-09 23:00N 47°40' W 122°24'0 0.5
2017-Jun-09 22:30N 47°40' W 122°23'1 1.1
2017-Jun-09 22:00N 47°40' W 122°23'1 1.2
2017-Jun-09 21:30N 47°39' W 122°22'0 0.0
2017-Jun-09 21:00N 47°39' W 122°22'  

Dump ship's entire track history